sensor_id;sensor_type;location;lat;lon;timestamp;temperature;humidity
19561;DHT22;9927;47.792;10.616;2023-07-13T00:01:54;19.50;99.90
19561;DHT22;9927;47.792;10.616;2023-07-13T00:04:23;19.50;99.90
19561;DHT22;9927;47.792;10.616;2023-07-13T00:06:53;19.50;99.90
19561;DHT22;9927;47.792;10.616;2023-07-13T00:09:21;19.50;99.90
19561;DHT22;9927;47.792;10.616;2023-07-13T00:11:54;19.50;99.90
19561;DHT22;9927;47.792;10.616;2023-07-13T00:14:23;19.50;99.90
19561;DHT22;9927;47.792;10.616;2023-07-13T00:16:50;19.40;99.90
19561;DHT22;9927;47.792;10.616;2023-07-13T00:19:18;19.40;99.90
19561;DHT22;9927;47.792;10.616;2023-07-13T00:21:46;19.40;99.90
19561;DHT22;9927;47.792;10.616;2023-07-13T00:24:18;19.40;99.90
19561;DHT22;9927;47.792;10.616;2023-07-13T00:26:51;19.40;99.90
19561;DHT22;9927;47.792;10.616;2023-07-13T00:29:18;19.40;99.90
19561;DHT22;9927;47.792;10.616;2023-07-13T00:31:48;19.30;99.90
19561;DHT22;9927;47.792;10.616;2023-07-13T00:34:15;19.30;99.90
19561;DHT22;9927;47.792;10.616;2023-07-13T00:36:42;19.20;99.90
19561;DHT22;9927;47.792;10.616;2023-07-13T00:39:09;19.10;99.90
19561;DHT22;9927;47.792;10.616;2023-07-13T00:41:36;19.20;99.90
19561;DHT22;9927;47.792;10.616;2023-07-13T00:44:04;19.10;99.90
19561;DHT22;9927;47.792;10.616;2023-07-13T00:46:33;19.10;99.90
19561;DHT22;9927;47.792;10.616;2023-07-13T00:49:04;19.10;99.90
19561;DHT22;9927;47.792;10.616;2023-07-13T00:51:52;19.10;99.90
19561;DHT22;9927;47.792;10.616;2023-07-13T00:54:41;19.00;99.90
19561;DHT22;9927;47.792;10.616;2023-07-13T00:57:12;19.10;99.90
19561;DHT22;9927;47.792;10.616;2023-07-13T00:59:45;19.00;99.90
19561;DHT22;9927;47.792;10.616;2023-07-13T01:02:13;19.00;99.90
19561;DHT22;9927;47.792;10.616;2023-07-13T01:04:40;19.00;99.90
19561;DHT22;9927;47.792;10.616;2023-07-13T01:07:10;19.00;99.90
19561;DHT22;9927;47.792;10.616;2023-07-13T01:09:38;19.00;99.90
19561;DHT22;9927;47.792;10.616;2023-07-13T01:12:06;18.80;99.90
19561;DHT22;9927;47.792;10.616;2023-07-13T01:14:34;18.80;99.90
19561;DHT22;9927;47.792;10.616;2023-07-13T01:17:01;18.80;99.90
19561;DHT22;9927;47.792;10.616;2023-07-13T01:19:41;18.70;99.90
19561;DHT22;9927;47.792;10.616;2023-07-13T01:22:13;18.60;99.90
19561;DHT22;9927;47.792;10.616;2023-07-13T01:24:43;18.60;99.90
19561;DHT22;9927;47.792;10.616;2023-07-13T01:27:14;18.60;99.90
19561;DHT22;9927;47.792;10.616;2023-07-13T01:29:45;18.60;99.90
19561;DHT22;9927;47.792;10.616;2023-07-13T01:32:17;18.60;99.90
19561;DHT22;9927;47.792;10.616;2023-07-13T01:34:51;18.40;99.90
19561;DHT22;9927;47.792;10.616;2023-07-13T01:37:22;18.40;99.90
19561;DHT22;9927;47.792;10.616;2023-07-13T01:39:49;18.40;99.90
19561;DHT22;9927;47.792;10.616;2023-07-13T01:42:17;18.40;99.90
19561;DHT22;9927;47.792;10.616;2023-07-13T01:44:45;18.30;99.90
19561;DHT22;9927;47.792;10.616;2023-07-13T01:47:12;18.30;99.90
19561;DHT22;9927;47.792;10.616;2023-07-13T01:49:39;18.30;99.90
19561;DHT22;9927;47.792;10.616;2023-07-13T01:52:07;18.40;99.90
19561;DHT22;9927;47.792;10.616;2023-07-13T01:54:34;18.20;99.90
19561;DHT22;9927;47.792;10.616;2023-07-13T01:57:01;18.20;99.90
19561;DHT22;9927;47.792;10.616;2023-07-13T01:59:28;18.20;99.90
19561;DHT22;9927;47.792;10.616;2023-07-13T02:01:56;18.20;99.90
19561;DHT22;9927;47.792;10.616;2023-07-13T02:04:23;18.20;99.90
19561;DHT22;9927;47.792;10.616;2023-07-13T02:06:50;18.30;99.90
19561;DHT22;9927;47.792;10.616;2023-07-13T02:09:18;18.20;99.90
19561;DHT22;9927;47.792;10.616;2023-07-13T02:11:45;18.30;99.90
19561;DHT22;9927;47.792;10.616;2023-07-13T02:14:12;18.30;99.90
19561;DHT22;9927;47.792;10.616;2023-07-13T02:16:39;18.30;99.90
19561;DHT22;9927;47.792;10.616;2023-07-13T02:19:07;18.20;99.90
19561;DHT22;9927;47.792;10.616;2023-07-13T02:21:34;18.20;99.90
19561;DHT22;9927;47.792;10.616;2023-07-13T02:24:01;18.30;99.90
19561;DHT22;9927;47.792;10.616;2023-07-13T02:26:29;18.30;99.90
19561;DHT22;9927;47.792;10.616;2023-07-13T02:28:56;18.40;99.90
19561;DHT22;9927;47.792;10.616;2023-07-13T02:31:23;18.40;99.90
19561;DHT22;9927;47.792;10.616;2023-07-13T02:33:50;18.50;99.90
19561;DHT22;9927;47.792;10.616;2023-07-13T02:36:18;18.40;99.90
19561;DHT22;9927;47.792;10.616;2023-07-13T02:38:45;18.40;99.90
19561;DHT22;9927;47.792;10.616;2023-07-13T02:41:12;18.40;99.90
19561;DHT22;9927;47.792;10.616;2023-07-13T02:43:40;18.40;99.90
19561;DHT22;9927;47.792;10.616;2023-07-13T02:46:07;18.40;99.90
19561;DHT22;9927;47.792;10.616;2023-07-13T02:48:37;18.40;99.90
19561;DHT22;9927;47.792;10.616;2023-07-13T02:51:05;18.50;99.90
19561;DHT22;9927;47.792;10.616;2023-07-13T02:53:33;18.50;99.90
19561;DHT22;9927;47.792;10.616;2023-07-13T02:56:00;18.40;99.90
19561;DHT22;9927;47.792;10.616;2023-07-13T02:58:27;18.40;99.90
19561;DHT22;9927;47.792;10.616;2023-07-13T03:00:56;18.30;99.90
19561;DHT22;9927;47.792;10.616;2023-07-13T03:03:24;18.30;99.90
19561;DHT22;9927;47.792;10.616;2023-07-13T03:05:59;18.40;99.90
19561;DHT22;9927;47.792;10.616;2023-07-13T03:08:27;18.40;99.90
19561;DHT22;9927;47.792;10.616;2023-07-13T03:11:09;18.40;99.90
19561;DHT22;9927;47.792;10.616;2023-07-13T03:13:39;18.40;99.90
19561;DHT22;9927;47.792;10.616;2023-07-13T03:16:07;18.40;99.90
19561;DHT22;9927;47.792;10.616;2023-07-13T03:18:35;18.50;99.90
19561;DHT22;9927;47.792;10.616;2023-07-13T03:21:04;18.50;99.90
19561;DHT22;9927;47.792;10.616;2023-07-13T03:23:32;18.60;99.90
19561;DHT22;9927;47.792;10.616;2023-07-13T03:26:14;18.50;99.90
19561;DHT22;9927;47.792;10.616;2023-07-13T03:28:42;18.60;99.90
19561;DHT22;9927;47.792;10.616;2023-07-13T03:31:13;18.50;99.90
19561;DHT22;9927;47.792;10.616;2023-07-13T03:33:40;18.60;99.90
19561;DHT22;9927;47.792;10.616;2023-07-13T03:36:22;18.60;99.90
19561;DHT22;9927;47.792;10.616;2023-07-13T03:38:52;18.50;99.90
19561;DHT22;9927;47.792;10.616;2023-07-13T03:41:20;18.50;99.90
19561;DHT22;9927;47.792;10.616;2023-07-13T03:43:49;18.50;99.90
19561;DHT22;9927;47.792;10.616;2023-07-13T03:46:16;18.60;99.90
19561;DHT22;9927;47.792;10.616;2023-07-13T03:48:45;18.60;99.90
19561;DHT22;9927;47.792;10.616;2023-07-13T03:51:15;18.70;99.90
19561;DHT22;9927;47.792;10.616;2023-07-13T03:53:44;18.60;99.90
19561;DHT22;9927;47.792;10.616;2023-07-13T03:56:12;18.70;99.90
19561;DHT22;9927;47.792;10.616;2023-07-13T03:58:41;18.80;99.90
19561;DHT22;9927;47.792;10.616;2023-07-13T04:01:10;18.80;99.90
19561;DHT22;9927;47.792;10.616;2023-07-13T04:03:38;18.80;99.90
19561;DHT22;9927;47.792;10.616;2023-07-13T04:06:07;18.80;99.90
19561;DHT22;9927;47.792;10.616;2023-07-13T04:08:36;18.70;99.90
19561;DHT22;9927;47.792;10.616;2023-07-13T04:11:04;18.60;99.90
19561;DHT22;9927;47.792;10.616;2023-07-13T04:13:31;18.60;99.90
19561;DHT22;9927;47.792;10.616;2023-07-13T04:15:59;18.60;99.90
19561;DHT22;9927;47.792;10.616;2023-07-13T04:18:26;18.70;99.90
19561;DHT22;9927;47.792;10.616;2023-07-13T04:20:53;18.70;99.90
19561;DHT22;9927;47.792;10.616;2023-07-13T04:23:20;18.70;99.90
19561;DHT22;9927;47.792;10.616;2023-07-13T04:25:49;18.70;99.90
19561;DHT22;9927;47.792;10.616;2023-07-13T04:28:22;18.80;99.90
19561;DHT22;9927;47.792;10.616;2023-07-13T04:30:50;18.80;99.90
19561;DHT22;9927;47.792;10.616;2023-07-13T04:33:18;18.90;99.90
19561;DHT22;9927;47.792;10.616;2023-07-13T04:35:50;18.90;99.90
19561;DHT22;9927;47.792;10.616;2023-07-13T04:38:24;18.90;99.90
19561;DHT22;9927;47.792;10.616;2023-07-13T04:40:52;18.90;99.90
19561;DHT22;9927;47.792;10.616;2023-07-13T04:43:19;18.90;99.90
19561;DHT22;9927;47.792;10.616;2023-07-13T04:45:46;18.90;99.90
19561;DHT22;9927;47.792;10.616;2023-07-13T04:48:13;19.00;99.90
19561;DHT22;9927;47.792;10.616;2023-07-13T04:50:41;18.90;99.90
19561;DHT22;9927;47.792;10.616;2023-07-13T04:53:08;18.80;99.90
19561;DHT22;9927;47.792;10.616;2023-07-13T04:55:36;18.90;99.90
19561;DHT22;9927;47.792;10.616;2023-07-13T04:58:03;18.90;99.90
19561;DHT22;9927;47.792;10.616;2023-07-13T05:00:31;18.90;99.90
19561;DHT22;9927;47.792;10.616;2023-07-13T05:02:58;19.10;99.90
19561;DHT22;9927;47.792;10.616;2023-07-13T05:05:26;19.20;99.90
19561;DHT22;9927;47.792;10.616;2023-07-13T05:07:53;19.20;99.90
19561;DHT22;9927;47.792;10.616;2023-07-13T05:10:21;19.30;99.90
19561;DHT22;9927;47.792;10.616;2023-07-13T05:12:49;19.20;99.90
19561;DHT22;9927;47.792;10.616;2023-07-13T05:15:16;19.20;99.90
19561;DHT22;9927;47.792;10.616;2023-07-13T05:17:48;19.30;99.90
19561;DHT22;9927;47.792;10.616;2023-07-13T05:20:17;19.40;99.90
19561;DHT22;9927;47.792;10.616;2023-07-13T05:22:45;19.50;99.90
19561;DHT22;9927;47.792;10.616;2023-07-13T05:25:16;19.40;99.90
19561;DHT22;9927;47.792;10.616;2023-07-13T05:27:43;19.40;99.90
19561;DHT22;9927;47.792;10.616;2023-07-13T05:30:13;19.40;99.90
19561;DHT22;9927;47.792;10.616;2023-07-13T05:32:41;19.40;99.90
19561;DHT22;9927;47.792;10.616;2023-07-13T05:35:08;19.30;99.90
19561;DHT22;9927;47.792;10.616;2023-07-13T05:37:37;19.20;99.90
19561;DHT22;9927;47.792;10.616;2023-07-13T05:40:05;19.10;99.90
19561;DHT22;9927;47.792;10.616;2023-07-13T05:42:32;19.00;99.90
19561;DHT22;9927;47.792;10.616;2023-07-13T05:45:00;19.00;99.90
19561;DHT22;9927;47.792;10.616;2023-07-13T05:47:27;19.20;99.90
19561;DHT22;9927;47.792;10.616;2023-07-13T05:49:54;19.20;99.90
19561;DHT22;9927;47.792;10.616;2023-07-13T05:52:21;19.30;99.90
19561;DHT22;9927;47.792;10.616;2023-07-13T05:54:48;19.40;99.90
19561;DHT22;9927;47.792;10.616;2023-07-13T05:57:16;19.50;99.90
19561;DHT22;9927;47.792;10.616;2023-07-13T05:59:43;19.50;99.90
19561;DHT22;9927;47.792;10.616;2023-07-13T06:02:10;19.60;99.90
19561;DHT22;9927;47.792;10.616;2023-07-13T06:04:38;19.80;99.90
19561;DHT22;9927;47.792;10.616;2023-07-13T06:07:05;19.80;99.90
19561;DHT22;9927;47.792;10.616;2023-07-13T06:09:32;19.70;99.90
19561;DHT22;9927;47.792;10.616;2023-07-13T06:12:00;19.40;99.90
19561;DHT22;9927;47.792;10.616;2023-07-13T06:14:27;19.40;99.90
19561;DHT22;9927;47.792;10.616;2023-07-13T06:16:54;19.30;99.90
19561;DHT22;9927;47.792;10.616;2023-07-13T06:19:22;19.30;99.90
19561;DHT22;9927;47.792;10.616;2023-07-13T06:21:49;19.50;99.90
19561;DHT22;9927;47.792;10.616;2023-07-13T06:24:16;19.50;99.90
19561;DHT22;9927;47.792;10.616;2023-07-13T06:26:44;19.30;99.90
19561;DHT22;9927;47.792;10.616;2023-07-13T06:29:11;19.40;99.90
19561;DHT22;9927;47.792;10.616;2023-07-13T06:31:38;19.40;99.90
19561;DHT22;9927;47.792;10.616;2023-07-13T06:34:05;19.50;99.90
19561;DHT22;9927;47.792;10.616;2023-07-13T06:36:33;19.60;99.90
19561;DHT22;9927;47.792;10.616;2023-07-13T06:39:01;19.70;99.90
19561;DHT22;9927;47.792;10.616;2023-07-13T06:41:28;19.60;99.90
19561;DHT22;9927;47.792;10.616;2023-07-13T06:43:55;19.60;99.90
19561;DHT22;9927;47.792;10.616;2023-07-13T06:46:23;19.50;99.90
19561;DHT22;9927;47.792;10.616;2023-07-13T06:48:50;19.20;99.90
19561;DHT22;9927;47.792;10.616;2023-07-13T06:51:18;19.10;99.90
19561;DHT22;9927;47.792;10.616;2023-07-13T06:53:45;19.00;99.90
19561;DHT22;9927;47.792;10.616;2023-07-13T06:56:12;18.90;99.90
19561;DHT22;9927;47.792;10.616;2023-07-13T06:58:39;18.80;99.90
19561;DHT22;9927;47.792;10.616;2023-07-13T07:01:07;18.80;99.90
19561;DHT22;9927;47.792;10.616;2023-07-13T07:03:34;18.70;99.90
19561;DHT22;9927;47.792;10.616;2023-07-13T07:06:20;18.70;99.90
19561;DHT22;9927;47.792;10.616;2023-07-13T07:08:49;18.60;99.90
19561;DHT22;9927;47.792;10.616;2023-07-13T07:11:19;18.50;99.90
19561;DHT22;9927;47.792;10.616;2023-07-13T07:13:47;18.50;99.90
19561;DHT22;9927;47.792;10.616;2023-07-13T07:16:14;18.50;99.90
19561;DHT22;9927;47.792;10.616;2023-07-13T07:18:42;18.60;99.90
19561;DHT22;9927;47.792;10.616;2023-07-13T07:21:09;18.60;99.90
19561;DHT22;9927;47.792;10.616;2023-07-13T07:23:37;18.70;99.90
19561;DHT22;9927;47.792;10.616;2023-07-13T07:26:05;18.70;99.90
19561;DHT22;9927;47.792;10.616;2023-07-13T07:28:32;18.80;99.90
19561;DHT22;9927;47.792;10.616;2023-07-13T07:31:02;18.80;99.90
19561;DHT22;9927;47.792;10.616;2023-07-13T07:33:33;18.70;99.90
19561;DHT22;9927;47.792;10.616;2023-07-13T07:36:01;18.70;99.90
19561;DHT22;9927;47.792;10.616;2023-07-13T07:38:32;18.70;99.90
19561;DHT22;9927;47.792;10.616;2023-07-13T07:41:04;18.70;99.90
19561;DHT22;9927;47.792;10.616;2023-07-13T07:43:35;18.80;99.90
19561;DHT22;9927;47.792;10.616;2023-07-13T07:46:02;19.00;99.90
19561;DHT22;9927;47.792;10.616;2023-07-13T07:48:31;19.10;99.90
19561;DHT22;9927;47.792;10.616;2023-07-13T07:50:58;19.10;99.90
19561;DHT22;9927;47.792;10.616;2023-07-13T07:53:25;19.10;99.90
19561;DHT22;9927;47.792;10.616;2023-07-13T07:55:52;19.10;99.90
19561;DHT22;9927;47.792;10.616;2023-07-13T07:58:22;19.20;99.90
19561;DHT22;9927;47.792;10.616;2023-07-13T08:00:53;19.10;99.90
19561;DHT22;9927;47.792;10.616;2023-07-13T08:03:23;19.20;99.90
19561;DHT22;9927;47.792;10.616;2023-07-13T08:05:53;19.30;99.90
19561;DHT22;9927;47.792;10.616;2023-07-13T08:08:24;19.50;99.90
19561;DHT22;9927;47.792;10.616;2023-07-13T08:10:52;19.30;99.90
19561;DHT22;9927;47.792;10.616;2023-07-13T08:13:25;19.40;99.90
19561;DHT22;9927;47.792;10.616;2023-07-13T08:15:52;19.50;99.90
19561;DHT22;9927;47.792;10.616;2023-07-13T08:18:20;19.50;99.90
19561;DHT22;9927;47.792;10.616;2023-07-13T08:20:47;19.40;99.90
19561;DHT22;9927;47.792;10.616;2023-07-13T08:23:15;19.40;99.90
19561;DHT22;9927;47.792;10.616;2023-07-13T08:25:53;19.40;99.90
19561;DHT22;9927;47.792;10.616;2023-07-13T08:28:21;19.30;99.90
19561;DHT22;9927;47.792;10.616;2023-07-13T08:30:49;19.20;99.90
19561;DHT22;9927;47.792;10.616;2023-07-13T08:33:20;19.30;99.90
19561;DHT22;9927;47.792;10.616;2023-07-13T08:35:49;19.20;99.90
19561;DHT22;9927;47.792;10.616;2023-07-13T08:38:17;19.20;99.90
19561;DHT22;9927;47.792;10.616;2023-07-13T08:40:50;19.30;99.90
19561;DHT22;9927;47.792;10.616;2023-07-13T08:43:23;19.00;99.90
19561;DHT22;9927;47.792;10.616;2023-07-13T08:48:36;19.30;99.90
19561;DHT22;9927;47.792;10.616;2023-07-13T08:51:44;19.40;99.90
19561;DHT22;9927;47.792;10.616;2023-07-13T08:54:31;19.60;99.90
19561;DHT22;9927;47.792;10.616;2023-07-13T08:57:03;19.80;99.90
19561;DHT22;9927;47.792;10.616;2023-07-13T08:59:37;20.00;99.90
19561;DHT22;9927;47.792;10.616;2023-07-13T09:10:20;19.90;99.90
19561;DHT22;9927;47.792;10.616;2023-07-13T09:15:41;20.40;99.90
19561;DHT22;9927;47.792;10.616;2023-07-13T09:18:16;20.60;99.90
19561;DHT22;9927;47.792;10.616;2023-07-13T09:23:20;20.60;99.90
19561;DHT22;9927;47.792;10.616;2023-07-13T09:25:51;20.60;99.90
19561;DHT22;9927;47.792;10.616;2023-07-13T09:28:26;21.20;99.90
19561;DHT22;9927;47.792;10.616;2023-07-13T09:31:33;21.50;99.90
19561;DHT22;9927;47.792;10.616;2023-07-13T09:33:57;21.70;99.90
19561;DHT22;9927;47.792;10.616;2023-07-13T09:36:29;21.80;99.90
19561;DHT22;9927;47.792;10.616;2023-07-13T09:39:08;22.10;99.90
19561;DHT22;9927;47.792;10.616;2023-07-13T09:41:47;22.10;99.90
19561;DHT22;9927;47.792;10.616;2023-07-13T09:44:18;22.10;99.90
19561;DHT22;9927;47.792;10.616;2023-07-13T09:46:55;22.00;99.90
19561;DHT22;9927;47.792;10.616;2023-07-13T09:49:28;22.10;99.90
19561;DHT22;9927;47.792;10.616;2023-07-13T09:52:01;22.20;99.90
19561;DHT22;9927;47.792;10.616;2023-07-13T09:54:34;22.50;99.90
19561;DHT22;9927;47.792;10.616;2023-07-13T09:57:02;23.00;99.90
19561;DHT22;9927;47.792;10.616;2023-07-13T09:59:33;22.90;99.90
19561;DHT22;9927;47.792;10.616;2023-07-13T10:02:01;22.60;99.90
19561;DHT22;9927;47.792;10.616;2023-07-13T10:04:33;22.70;99.90
19561;DHT22;9927;47.792;10.616;2023-07-13T10:07:11;23.10;99.90
19561;DHT22;9927;47.792;10.616;2023-07-13T10:09:57;23.60;99.90
19561;DHT22;9927;47.792;10.616;2023-07-13T10:12:24;23.80;99.90
19561;DHT22;9927;47.792;10.616;2023-07-13T10:14:56;24.60;99.90
19561;DHT22;9927;47.792;10.616;2023-07-13T10:17:44;24.90;99.90
19561;DHT22;9927;47.792;10.616;2023-07-13T10:20:11;24.90;99.90
19561;DHT22;9927;47.792;10.616;2023-07-13T10:22:50;24.70;99.90
19561;DHT22;9927;47.792;10.616;2023-07-13T10:25:22;24.30;99.90
19561;DHT22;9927;47.792;10.616;2023-07-13T10:27:53;24.00;97.40
19561;DHT22;9927;47.792;10.616;2023-07-13T10:30:24;23.90;95.80
19561;DHT22;9927;47.792;10.616;2023-07-13T10:32:52;24.10;98.20
19561;DHT22;9927;47.792;10.616;2023-07-13T10:35:22;24.10;96.40
19561;DHT22;9927;47.792;10.616;2023-07-13T10:38:03;24.10;97.90
19561;DHT22;9927;47.792;10.616;2023-07-13T10:40:40;24.30;95.60
19561;DHT22;9927;47.792;10.616;2023-07-13T10:43:21;24.50;99.90
19561;DHT22;9927;47.792;10.616;2023-07-13T10:45:51;24.70;99.00
19561;DHT22;9927;47.792;10.616;2023-07-13T10:48:19;24.70;97.60
19561;DHT22;9927;47.792;10.616;2023-07-13T10:50:50;24.60;94.90
19561;DHT22;9927;47.792;10.616;2023-07-13T10:53:21;24.50;93.70
19561;DHT22;9927;47.792;10.616;2023-07-13T10:58:31;24.30;95.40
19561;DHT22;9927;47.792;10.616;2023-07-13T11:01:03;24.00;96.60
19561;DHT22;9927;47.792;10.616;2023-07-13T11:03:32;23.70;97.60
19561;DHT22;9927;47.792;10.616;2023-07-13T11:06:16;23.60;95.90
19561;DHT22;9927;47.792;10.616;2023-07-13T11:11:36;23.40;97.70
19561;DHT22;9927;47.792;10.616;2023-07-13T11:16:55;23.20;96.70
19561;DHT22;9927;47.792;10.616;2023-07-13T11:24:50;24.00;96.90
19561;DHT22;9927;47.792;10.616;2023-07-13T11:32:51;24.50;94.70
19561;DHT22;9927;47.792;10.616;2023-07-13T11:35:23;24.30;94.20
19561;DHT22;9927;47.792;10.616;2023-07-13T11:37:53;24.30;95.00
19561;DHT22;9927;47.792;10.616;2023-07-13T11:40:22;23.90;94.30
19561;DHT22;9927;47.792;10.616;2023-07-13T11:42:51;24.00;94.80
19561;DHT22;9927;47.792;10.616;2023-07-13T11:45:20;24.10;95.90
19561;DHT22;9927;47.792;10.616;2023-07-13T11:48:28;24.00;96.20
19561;DHT22;9927;47.792;10.616;2023-07-13T11:51:02;24.10;95.20
19561;DHT22;9927;47.792;10.616;2023-07-13T11:53:38;24.10;95.00
19561;DHT22;9927;47.792;10.616;2023-07-13T11:56:06;24.20;95.30
19561;DHT22;9927;47.792;10.616;2023-07-13T11:58:34;24.50;96.30
19561;DHT22;9927;47.792;10.616;2023-07-13T12:01:02;24.30;95.50
19561;DHT22;9927;47.792;10.616;2023-07-13T12:03:35;24.00;95.30
19561;DHT22;9927;47.792;10.616;2023-07-13T12:06:04;23.80;99.00
19561;DHT22;9927;47.792;10.616;2023-07-13T12:08:38;23.70;95.40
19561;DHT22;9927;47.792;10.616;2023-07-13T12:11:15;23.40;96.00
19561;DHT22;9927;47.792;10.616;2023-07-13T12:13:45;23.40;96.90
19561;DHT22;9927;47.792;10.616;2023-07-13T12:16:25;23.30;97.40
19561;DHT22;9927;47.792;10.616;2023-07-13T12:18:53;23.60;99.30
19561;DHT22;9927;47.792;10.616;2023-07-13T12:21:33;23.90;99.90
19561;DHT22;9927;47.792;10.616;2023-07-13T12:24:02;24.00;97.70
19561;DHT22;9927;47.792;10.616;2023-07-13T12:26:31;24.30;98.00
19561;DHT22;9927;47.792;10.616;2023-07-13T12:29:01;24.40;96.70
19561;DHT22;9927;47.792;10.616;2023-07-13T12:31:37;24.70;96.60
19561;DHT22;9927;47.792;10.616;2023-07-13T12:34:12;24.60;94.60
19561;DHT22;9927;47.792;10.616;2023-07-13T12:37:08;24.60;95.00
19561;DHT22;9927;47.792;10.616;2023-07-13T12:39:45;24.40;97.20
19561;DHT22;9927;47.792;10.616;2023-07-13T12:42:29;24.20;97.20
19561;DHT22;9927;47.792;10.616;2023-07-13T12:45:12;24.10;96.20
19561;DHT22;9927;47.792;10.616;2023-07-13T12:47:49;23.50;97.70
19561;DHT22;9927;47.792;10.616;2023-07-13T12:50:21;23.50;98.20
19561;DHT22;9927;47.792;10.616;2023-07-13T12:52:54;23.30;97.30
19561;DHT22;9927;47.792;10.616;2023-07-13T12:55:22;23.20;97.50
19561;DHT22;9927;47.792;10.616;2023-07-13T12:57:56;23.20;98.70
19561;DHT22;9927;47.792;10.616;2023-07-13T13:00:38;23.20;99.50
19561;DHT22;9927;47.792;10.616;2023-07-13T13:03:23;23.20;99.00
19561;DHT22;9927;47.792;10.616;2023-07-13T13:06:06;23.30;99.90
19561;DHT22;9927;47.792;10.616;2023-07-13T13:08:35;23.70;99.80
19561;DHT22;9927;47.792;10.616;2023-07-13T13:11:03;24.00;99.90
19561;DHT22;9927;47.792;10.616;2023-07-13T13:13:30;24.60;97.10
19561;DHT22;9927;47.792;10.616;2023-07-13T13:16:45;24.40;97.10
19561;DHT22;9927;47.792;10.616;2023-07-13T13:18:53;24.80;97.50
19561;DHT22;9927;47.792;10.616;2023-07-13T13:21:22;25.00;97.40
19561;DHT22;9927;47.792;10.616;2023-07-13T13:23:49;25.30;98.40
19561;DHT22;9927;47.792;10.616;2023-07-13T13:26:18;25.70;97.80
19561;DHT22;9927;47.792;10.616;2023-07-13T13:28:46;25.40;95.90
19561;DHT22;9927;47.792;10.616;2023-07-13T13:31:19;25.40;94.80
19561;DHT22;9927;47.792;10.616;2023-07-13T13:33:47;25.30;96.80
19561;DHT22;9927;47.792;10.616;2023-07-13T13:36:21;25.40;98.00
19561;DHT22;9927;47.792;10.616;2023-07-13T13:38:50;25.60;98.50
19561;DHT22;9927;47.792;10.616;2023-07-13T13:41:18;25.50;97.00
19561;DHT22;9927;47.792;10.616;2023-07-13T13:43:45;25.40;97.40
19561;DHT22;9927;47.792;10.616;2023-07-13T13:46:16;25.50;96.90
19561;DHT22;9927;47.792;10.616;2023-07-13T13:48:45;25.50;96.80
19561;DHT22;9927;47.792;10.616;2023-07-13T13:51:20;25.60;97.50
19561;DHT22;9927;47.792;10.616;2023-07-13T13:53:48;25.70;97.20
19561;DHT22;9927;47.792;10.616;2023-07-13T13:56:18;26.00;97.20
19561;DHT22;9927;47.792;10.616;2023-07-13T13:58:45;26.20;95.60
19561;DHT22;9927;47.792;10.616;2023-07-13T14:01:19;26.30;94.90
19561;DHT22;9927;47.792;10.616;2023-07-13T14:03:47;26.20;94.60
19561;DHT22;9927;47.792;10.616;2023-07-13T14:06:20;26.20;96.50
19561;DHT22;9927;47.792;10.616;2023-07-13T14:08:48;26.10;97.10
19561;DHT22;9927;47.792;10.616;2023-07-13T14:11:18;26.00;97.70
19561;DHT22;9927;47.792;10.616;2023-07-13T14:13:49;25.90;96.10
19561;DHT22;9927;47.792;10.616;2023-07-13T14:16:21;25.90;96.30
19561;DHT22;9927;47.792;10.616;2023-07-13T14:18:49;25.50;95.70
19561;DHT22;9927;47.792;10.616;2023-07-13T14:21:19;25.30;97.50
19561;DHT22;9927;47.792;10.616;2023-07-13T14:23:48;25.10;98.40
19561;DHT22;9927;47.792;10.616;2023-07-13T14:26:21;25.00;98.50
19561;DHT22;9927;47.792;10.616;2023-07-13T14:28:54;24.70;97.70
19561;DHT22;9927;47.792;10.616;2023-07-13T14:31:23;25.00;97.70
19561;DHT22;9927;47.792;10.616;2023-07-13T14:33:56;25.40;97.70
19561;DHT22;9927;47.792;10.616;2023-07-13T14:39:01;26.10;97.40
19561;DHT22;9927;47.792;10.616;2023-07-13T14:41:33;26.40;96.70
19561;DHT22;9927;47.792;10.616;2023-07-13T14:44:00;26.60;96.40
19561;DHT22;9927;47.792;10.616;2023-07-13T14:46:30;26.70;96.40
19561;DHT22;9927;47.792;10.616;2023-07-13T14:49:02;26.90;95.50
19561;DHT22;9927;47.792;10.616;2023-07-13T14:51:31;26.50;95.30
19561;DHT22;9927;47.792;10.616;2023-07-13T14:54:03;26.20;94.70
19561;DHT22;9927;47.792;10.616;2023-07-13T14:56:31;26.10;95.00
19561;DHT22;9927;47.792;10.616;2023-07-13T14:58:58;25.90;95.50
19561;DHT22;9927;47.792;10.616;2023-07-13T15:01:26;25.50;95.70
19561;DHT22;9927;47.792;10.616;2023-07-13T15:03:53;25.30;96.10
19561;DHT22;9927;47.792;10.616;2023-07-13T15:06:21;25.10;95.80
19561;DHT22;9927;47.792;10.616;2023-07-13T15:08:48;25.50;97.50
19561;DHT22;9927;47.792;10.616;2023-07-13T15:11:16;26.00;97.00
19561;DHT22;9927;47.792;10.616;2023-07-13T15:13:44;26.70;95.80
19561;DHT22;9927;47.792;10.616;2023-07-13T15:16:21;27.00;94.70
19561;DHT22;9927;47.792;10.616;2023-07-13T15:18:50;26.60;94.20
19561;DHT22;9927;47.792;10.616;2023-07-13T15:21:23;26.30;94.50
19561;DHT22;9927;47.792;10.616;2023-07-13T15:23:51;26.40;94.20
19561;DHT22;9927;47.792;10.616;2023-07-13T15:26:19;26.40;93.20
19561;DHT22;9927;47.792;10.616;2023-07-13T15:28:47;26.30;93.30
19561;DHT22;9927;47.792;10.616;2023-07-13T15:33:46;26.50;95.40
19561;DHT22;9927;47.792;10.616;2023-07-13T15:36:17;26.70;94.40
19561;DHT22;9927;47.792;10.616;2023-07-13T15:38:46;26.70;93.80
19561;DHT22;9927;47.792;10.616;2023-07-13T15:41:20;26.90;94.00
19561;DHT22;9927;47.792;10.616;2023-07-13T15:43:51;27.00;93.90
19561;DHT22;9927;47.792;10.616;2023-07-13T15:46:20;27.30;94.00
19561;DHT22;9927;47.792;10.616;2023-07-13T15:48:50;27.30;92.50
19561;DHT22;9927;47.792;10.616;2023-07-13T15:53:49;27.00;92.70
19561;DHT22;9927;47.792;10.616;2023-07-13T15:56:28;27.00;93.30
19561;DHT22;9927;47.792;10.616;2023-07-13T15:58:56;27.30;91.90
19561;DHT22;9927;47.792;10.616;2023-07-13T16:01:24;27.20;90.80
19561;DHT22;9927;47.792;10.616;2023-07-13T16:03:52;27.10;92.40
19561;DHT22;9927;47.792;10.616;2023-07-13T16:06:28;27.00;91.70
19561;DHT22;9927;47.792;10.616;2023-07-13T16:08:57;26.60;91.70
19561;DHT22;9927;47.792;10.616;2023-07-13T16:11:27;26.50;91.60
19561;DHT22;9927;47.792;10.616;2023-07-13T16:13:58;26.50;91.50
19561;DHT22;9927;47.792;10.616;2023-07-13T16:16:29;26.50;91.20
19561;DHT22;9927;47.792;10.616;2023-07-13T16:18:58;26.30;93.10
19561;DHT22;9927;47.792;10.616;2023-07-13T16:21:30;25.90;93.70
19561;DHT22;9927;47.792;10.616;2023-07-13T16:24:00;25.60;93.60
19561;DHT22;9927;47.792;10.616;2023-07-13T16:26:36;25.60;93.40
19561;DHT22;9927;47.792;10.616;2023-07-13T16:29:12;25.60;93.20
19561;DHT22;9927;47.792;10.616;2023-07-13T16:31:40;25.70;94.40
19561;DHT22;9927;47.792;10.616;2023-07-13T16:34:08;25.90;94.10